createdAt,value
2019-04-23T00:01:45.633Z,17.60
2019-04-23T00:04:20.488Z,18.27
2019-04-23T00:07:03.485Z,18.27
2019-04-23T00:09:33.084Z,18.40
2019-04-23T00:12:00.370Z,17.67
2019-04-23T00:14:38.342Z,17.48
2019-04-23T00:17:11.622Z,18.92
2019-04-23T00:19:31.164Z,18.07
2019-04-23T00:22:15.063Z,17.87
2019-04-23T00:30:03.912Z,16.25
2019-04-23T00:32:35.095Z,16.93
2019-04-23T00:35:06.355Z,16.67
2019-04-23T00:37:45.785Z,16.05
2019-04-23T00:40:12.137Z,16.95
2019-04-23T00:42:47.776Z,16.27
2019-04-23T00:45:16.766Z,16.75
2019-04-23T00:47:49.569Z,16.97
2019-04-23T00:53:01.842Z,16.05
2019-04-23T00:55:38.632Z,16.42
2019-04-23T00:58:17.609Z,17.10
2019-04-23T01:00:47.471Z,16.73
2019-04-23T01:03:25.177Z,17.85
2019-04-23T01:06:00.621Z,17.70
2019-04-23T01:08:30.211Z,17.77
2019-04-23T01:11:20.417Z,18.05
2019-04-23T01:16:15.251Z,17.40
2019-04-23T01:18:57.896Z,16.85
2019-04-23T01:21:24.270Z,16.48
2019-04-23T01:24:04.429Z,17.10
2019-04-23T01:27:30.416Z,15.90
2019-04-23T01:29:42.777Z,17.20
2019-04-23T01:32:20.721Z,15.68
2019-04-23T01:34:56.333Z,15.75
2019-04-23T01:37:26.905Z,17.02
2019-04-23T01:39:57.807Z,16.57
2019-04-23T01:42:36.677Z,16.62
2019-04-23T01:47:50.176Z,16.12
2019-04-23T01:50:29.091Z,16.67
2019-04-23T01:53:05.628Z,14.90
2019-04-23T01:55:38.425Z,17.05
2019-04-23T01:58:32.173Z,16.75
2019-04-23T02:00:47.898Z,16.65
2019-04-23T02:03:21.251Z,16.12
2019-04-23T02:05:58.889Z,16.05
2019-04-23T02:08:25.977Z,15.32
2019-04-23T02:16:24.727Z,15.15
2019-04-23T02:19:00.838Z,15.00
2019-04-23T02:21:33.464Z,15.20
2019-04-23T02:24:24.394Z,15.35
2019-04-23T02:26:43.496Z,16.70
2019-04-23T02:32:19.063Z,17.67
2019-04-23T02:34:52.904Z,18.40
2019-04-23T02:37:45.660Z,18.65
2019-04-23T02:45:16.467Z,19.10
2019-04-23T02:48:03.397Z,17.80
2019-04-23T02:53:20.823Z,18.27
2019-04-23T02:58:28.122Z,17.60
2019-04-23T03:03:44.940Z,17.55
2019-04-23T03:06:29.527Z,17.23
2019-04-23T03:08:49.185Z,16.40
2019-04-23T03:11:30.622Z,17.87
2019-04-23T03:14:00.311Z,18.40
2019-04-23T03:17:00.384Z,18.77
2019-04-23T03:22:05.645Z,19.45
2019-04-23T03:27:34.204Z,18.42
2019-04-23T03:34:13.629Z,18.98
2019-04-23T03:35:19.459Z,17.95
2019-04-23T03:37:44.849Z,18.12
2019-04-23T03:43:10.505Z,18.10
2019-04-23T03:48:06.031Z,19.40
2019-04-23T03:50:37.995Z,18.62
2019-04-23T03:53:14.093Z,17.55
2019-04-23T03:55:54.483Z,18.05
2019-04-23T03:58:28.277Z,17.15
2019-04-23T04:01:06.858Z,17.32
2019-04-23T04:04:10.628Z,18.20
2019-04-23T04:06:37.995Z,18.25
2019-04-23T04:11:31.219Z,20.35
2019-04-23T04:14:33.846Z,18.95
2019-04-23T04:21:58.405Z,14.47
2019-04-23T04:27:33.999Z,11.60
2019-04-23T04:35:11.221Z,15.00
2019-04-23T04:42:33.124Z,11.48
2019-04-23T04:45:30.252Z,12.00
2019-04-23T04:55:11.665Z,10.90
2019-04-23T04:57:52.148Z,12.10
2019-04-23T05:00:25.274Z,11.35
2019-04-23T05:05:55.541Z,9.95
2019-04-23T05:07:58.619Z,9.08
2019-04-23T05:10:32.513Z,4.55
2019-04-23T05:13:11.769Z,10.00
2019-04-23T05:15:25.778Z,10.23
2019-04-23T05:18:14.088Z,9.83
2019-04-23T05:20:38.994Z,7.62
2019-04-23T05:23:16.464Z,9.38
2019-04-23T05:25:38.180Z,6.90
2019-04-23T05:30:50.185Z,9.75
2019-04-23T05:36:06.118Z,8.70
2019-04-23T05:38:30.029Z,9.18
2019-04-23T05:40:58.511Z,7.90
2019-04-23T05:43:19.172Z,8.03
2019-04-23T05:45:59.198Z,10.15
2019-04-23T05:48:29.920Z,8.40
2019-04-23T05:51:04.158Z,9.73
2019-04-23T05:53:37.792Z,7.92
2019-04-23T05:56:02.222Z,8.65
2019-04-23T05:58:36.949Z,8.48
2019-04-23T06:01:47.720Z,8.18
2019-04-23T06:03:56.839Z,8.60
2019-04-23T06:06:33.156Z,8.03
2019-04-23T06:11:36.799Z,12.13
2019-04-23T06:14:06.534Z,6.30
2019-04-23T06:16:36.094Z,7.45
2019-04-23T06:21:44.319Z,6.83
2019-04-23T06:31:42.928Z,8.43
2019-04-23T06:34:16.786Z,7.35
2019-04-23T06:36:46.074Z,6.67
2019-04-23T06:39:21.391Z,6.60
2019-04-23T06:41:53.063Z,7.22
2019-04-23T06:44:28.461Z,7.58
2019-04-23T06:49:47.578Z,7.35
2019-04-23T06:52:10.035Z,7.58
2019-04-23T06:57:14.662Z,17.40
2019-04-23T06:59:35.289Z,7.12
2019-04-23T07:04:50.293Z,5.47
2019-04-23T07:12:15.048Z,6.92
2019-04-23T07:17:13.381Z,6.45
2019-04-23T07:19:49.789Z,8.28
2019-04-23T07:24:52.777Z,9.08
2019-04-23T07:27:26.033Z,10.03
2019-04-23T07:30:03.959Z,6.72
2019-04-23T07:32:32.589Z,6.35
2019-04-23T07:35:07.200Z,5.67
2019-04-23T07:37:54.749Z,8.88
2019-04-23T07:43:05.279Z,11.22
2019-04-23T07:45:22.292Z,9.03
2019-04-23T07:55:49.632Z,9.08
2019-04-23T07:58:23.451Z,9.25
2019-04-23T08:03:36.574Z,8.83
2019-04-23T08:06:10.102Z,18.50
2019-04-23T08:08:24.531Z,14.10
2019-04-23T08:16:25.932Z,7.78
2019-04-23T08:18:52.697Z,8.58
2019-04-23T08:24:07.031Z,11.95
2019-04-23T08:26:38.013Z,12.73
2019-04-23T08:29:13.835Z,11.65
2019-04-23T08:31:52.785Z,8.33
2019-04-23T08:34:27.324Z,8.00
2019-04-23T08:37:03.163Z,8.48
2019-04-23T08:39:28.653Z,7.62
2019-04-23T08:44:38.861Z,7.50
2019-04-23T08:52:18.374Z,5.58
2019-04-23T08:54:53.449Z,8.70
2019-04-23T08:59:55.903Z,11.55
2019-04-23T09:05:02.503Z,8.83
2019-04-23T09:07:28.232Z,23.00
2019-04-23T09:10:07.794Z,10.35
2019-04-23T09:15:07.439Z,14.03
2019-04-23T09:17:40.385Z,12.53
2019-04-23T09:22:37.325Z,16.20
2019-04-23T09:27:39.761Z,12.47
2019-04-23T09:30:12.615Z,20.15
2019-04-23T09:32:44.978Z,11.65
2019-04-23T09:35:32.346Z,13.03
2019-04-23T09:38:31.901Z,10.20
2019-04-23T09:41:18.118Z,9.40
2019-04-23T09:43:37.066Z,8.00
2019-04-23T09:46:17.425Z,8.60
2019-04-23T09:51:23.621Z,9.58
2019-04-23T09:53:51.185Z,6.72
2019-04-23T09:56:32.135Z,23.92
2019-04-23T09:59:03.949Z,9.93
2019-04-23T10:01:39.386Z,9.05
2019-04-23T10:03:50.862Z,8.30
2019-04-23T10:06:18.232Z,13.00
2019-04-23T10:08:49.504Z,13.70
2019-04-23T10:11:15.983Z,17.42
2019-04-23T10:13:46.428Z,12.65
2019-04-23T10:16:19.463Z,8.30
2019-04-23T10:18:49.181Z,9.00
2019-04-23T10:21:19.610Z,8.05
2019-04-23T10:23:51.672Z,9.53
2019-04-23T10:26:22.041Z,10.13
2019-04-23T10:28:54.036Z,13.98
2019-04-23T10:31:25.124Z,9.05
2019-04-23T10:33:55.948Z,9.35
2019-04-23T10:36:29.579Z,15.20
2019-04-23T10:39:03.562Z,9.73
2019-04-23T10:41:32.693Z,8.05
2019-04-23T10:47:02.777Z,8.05
2019-04-23T10:49:53.183Z,8.90
2019-04-23T10:54:57.648Z,8.60
2019-04-23T10:57:16.721Z,7.03
2019-04-23T11:00:07.199Z,11.73
2019-04-23T11:02:39.006Z,8.70
2019-04-23T11:15:24.606Z,18.62
2019-04-23T11:17:45.909Z,11.38
2019-04-23T11:20:25.511Z,10.70
2019-04-23T11:27:48.997Z,12.03
2019-04-23T11:30:35.631Z,11.83
2019-04-23T11:33:00.795Z,9.38
2019-04-23T11:43:11.469Z,8.90
2019-04-23T11:45:53.820Z,8.68
2019-04-23T11:53:24.072Z,8.90
2019-04-23T11:56:02.814Z,15.08
2019-04-23T11:58:35.748Z,10.23
2019-04-23T12:01:23.340Z,10.23
2019-04-23T12:04:05.424Z,13.30
2019-04-23T12:06:46.823Z,10.43
2019-04-23T12:17:26.114Z,9.65
2019-04-23T12:20:07.983Z,11.70
2019-04-23T12:22:28.462Z,8.98
2019-04-23T12:30:00.923Z,8.13
2019-04-23T12:35:12.965Z,8.80
2019-04-23T12:47:58.439Z,8.43
2019-04-23T12:55:30.256Z,7.42
2019-04-23T12:58:10.766Z,8.20
2019-04-23T13:00:28.825Z,6.92
2019-04-23T13:05:27.108Z,7.37
2019-04-23T13:08:04.115Z,8.40
2019-04-23T13:10:50.103Z,9.03
2019-04-23T13:18:11.311Z,4.70
2019-04-23T13:23:16.893Z,9.15
2019-04-23T13:25:55.847Z,7.62
2019-04-23T13:28:21.157Z,8.15
2019-04-23T13:33:36.153Z,10.03
2019-04-23T13:38:35.003Z,11.55
2019-04-23T13:43:40.647Z,16.02
2019-04-23T13:46:14.812Z,8.28
2019-04-23T13:48:30.753Z,8.95
2019-04-23T13:56:17.390Z,8.65
2019-04-23T13:58:53.184Z,7.20
2019-04-23T14:04:07.598Z,15.08
2019-04-23T14:06:29.397Z,12.18
2019-04-23T14:14:21.942Z,18.62
2019-04-23T14:21:34.510Z,10.63
2019-04-23T14:24:18.207Z,7.58
2019-04-23T14:26:35.120Z,11.10
2019-04-23T14:36:43.107Z,8.70
2019-04-23T14:42:06.949Z,8.35
2019-04-23T14:44:20.024Z,7.78
2019-04-23T14:47:03.379Z,7.85
2019-04-23T14:49:41.002Z,9.33
2019-04-23T14:55:15.260Z,7.70
2019-04-23T14:57:19.370Z,9.40
2019-04-23T14:59:37.717Z,12.25
2019-04-23T15:02:14.552Z,8.60
2019-04-23T15:07:22.818Z,9.25
2019-04-23T15:09:55.571Z,9.85
2019-04-23T15:12:23.514Z,9.93
2019-04-23T15:17:20.038Z,10.58
2019-04-23T15:19:55.124Z,12.37
2019-04-23T15:22:35.142Z,10.03
2019-04-23T15:25:13.641Z,9.68
2019-04-23T15:28:03.885Z,10.18
2019-04-23T15:29:56.455Z,9.20
2019-04-23T15:32:43.935Z,10.60
2019-04-23T15:35:16.646Z,7.53
2019-04-23T15:37:58.276Z,8.88
2019-04-23T15:42:53.847Z,8.48
2019-04-23T15:45:19.447Z,10.43
2019-04-23T15:47:48.116Z,10.00
2019-04-23T15:50:23.522Z,8.83
2019-04-23T15:55:20.932Z,9.35
2019-04-23T16:00:25.936Z,10.70
2019-04-23T16:02:30.303Z,9.80
2019-04-23T16:05:00.566Z,10.50
2019-04-23T16:07:48.574Z,8.65
2019-04-23T16:10:37.772Z,8.05
2019-04-23T16:13:02.933Z,9.43
2019-04-23T16:15:40.364Z,9.23
2019-04-23T16:18:35.201Z,9.00
2019-04-23T16:21:10.499Z,9.20
2019-04-23T16:23:35.629Z,9.38
2019-04-23T16:26:08.088Z,12.60
2019-04-23T16:29:00.625Z,12.95
2019-04-23T16:31:28.914Z,10.63
2019-04-23T16:33:51.241Z,9.68
2019-04-23T16:36:25.342Z,9.80
2019-04-23T16:38:52.137Z,12.47
2019-04-23T16:41:25.972Z,11.75
2019-04-23T16:43:57.520Z,11.18
2019-04-23T16:46:33.760Z,9.95
2019-04-23T16:51:47.943Z,9.33
2019-04-23T16:54:32.640Z,10.63
2019-04-23T17:00:06.737Z,11.55
2019-04-23T17:02:16.007Z,11.80
2019-04-23T17:09:50.868Z,13.38
2019-04-23T17:12:13.473Z,13.88
2019-04-23T17:14:50.902Z,13.28
2019-04-23T17:17:14.834Z,10.93
2019-04-23T17:19:51.646Z,12.00
2019-04-23T17:22:38.962Z,14.20
2019-04-23T17:25:08.215Z,10.60
2019-04-23T17:27:28.097Z,10.58
2019-04-23T17:29:58.022Z,9.63
2019-04-23T17:32:28.074Z,9.55
2019-04-23T17:35:12.610Z,9.10
2019-04-23T17:37:40.269Z,10.48
2019-04-23T17:42:45.399Z,10.05
2019-04-23T17:48:13.151Z,9.63
2019-04-23T17:50:52.740Z,13.05
2019-04-23T17:53:25.381Z,9.93
2019-04-23T18:01:17.194Z,10.25
2019-04-23T18:06:20.919Z,10.50
2019-04-23T18:08:41.316Z,13.22
2019-04-23T18:11:16.038Z,20.08
2019-04-23T18:13:50.458Z,15.18
2019-04-23T18:16:30.663Z,14.93
2019-04-23T18:19:03.341Z,11.88
2019-04-23T18:21:36.276Z,10.48
2019-04-23T18:24:13.121Z,11.22
2019-04-23T18:26:42.976Z,12.68
2019-04-23T18:29:24.387Z,14.15
2019-04-23T18:31:44.513Z,9.75
2019-04-23T18:34:19.452Z,11.45
2019-04-23T18:36:52.304Z,11.20
2019-04-23T18:39:22.645Z,12.50
2019-04-23T18:42:03.968Z,11.25
2019-04-23T18:44:28.822Z,9.60
2019-04-23T18:46:58.852Z,11.90
2019-04-23T18:49:35.539Z,11.35
2019-04-23T18:52:05.082Z,12.55
2019-04-23T18:54:32.947Z,11.38
2019-04-23T18:57:12.635Z,10.82
2019-04-23T18:59:47.408Z,10.72
2019-04-23T19:02:20.474Z,10.15
2019-04-23T19:05:00.548Z,10.38
2019-04-23T19:07:42.539Z,12.80
2019-04-23T19:17:50.448Z,9.45
2019-04-23T19:20:54.854Z,11.78
2019-04-23T19:25:51.741Z,9.78
2019-04-23T19:31:02.088Z,11.93
2019-04-23T19:38:49.706Z,10.32
2019-04-23T19:41:12.813Z,13.45
2019-04-23T19:43:49.282Z,10.38
2019-04-23T19:46:21.936Z,9.13
2019-04-23T19:48:58.020Z,10.00
2019-04-23T19:51:30.168Z,11.33
2019-04-23T19:54:09.726Z,11.65
2019-04-23T19:56:37.883Z,10.18
2019-04-23T19:59:01.968Z,11.63
2019-04-23T20:01:56.511Z,9.88
2019-04-23T20:04:21.601Z,10.75
2019-04-23T20:09:28.429Z,10.70
2019-04-23T20:14:14.160Z,10.43
2019-04-23T20:17:02.507Z,14.23
2019-04-23T20:19:28.017Z,12.63
2019-04-23T20:22:08.999Z,10.48
2019-04-23T20:24:28.302Z,10.45
2019-04-23T20:27:01.243Z,10.80
2019-04-23T20:33:18.887Z,9.63
2019-04-23T20:37:05.524Z,15.43
2019-04-23T20:39:52.200Z,14.33
2019-04-23T20:42:22.289Z,11.95
2019-04-23T20:47:15.840Z,11.18
2019-04-23T20:49:56.686Z,10.88
2019-04-23T20:52:33.936Z,11.28
2019-04-23T20:55:01.958Z,10.18
2019-04-23T20:57:44.453Z,10.88
2019-04-23T21:00:18.061Z,10.35
2019-04-23T21:07:57.674Z,10.68
2019-04-23T21:10:34.927Z,11.45
2019-04-23T21:20:43.391Z,10.45
2019-04-23T21:23:09.640Z,11.00
2019-04-23T21:28:17.213Z,11.10
2019-04-23T21:33:24.338Z,11.40
2019-04-23T21:41:14.479Z,11.53
2019-04-23T21:46:24.206Z,11.28
2019-04-23T21:51:41.451Z,11.35
2019-04-23T21:53:55.631Z,10.20
2019-04-23T21:56:31.406Z,11.15
2019-04-23T22:01:48.700Z,11.78
2019-04-23T22:09:27.202Z,10.53
2019-04-23T22:11:56.772Z,10.93
2019-04-23T22:14:38.165Z,11.10
2019-04-23T22:16:55.759Z,10.23
2019-04-23T22:19:23.111Z,10.15
2019-04-23T22:21:59.119Z,10.90
2019-04-23T22:24:33.213Z,11.10
2019-04-23T22:27:03.993Z,10.80
2019-04-23T22:29:43.537Z,10.93
2019-04-23T22:32:15.094Z,11.88
2019-04-23T22:34:55.928Z,10.30
2019-04-23T22:37:23.509Z,9.93
2019-04-23T22:40:05.937Z,9.43
2019-04-23T22:47:58.392Z,11.53
2019-04-23T22:50:29.615Z,9.88
2019-04-23T22:53:00.379Z,9.88
2019-04-23T22:55:51.388Z,10.63
2019-04-23T22:58:19.381Z,11.05
2019-04-23T23:03:40.441Z,10.40
2019-04-23T23:08:59.954Z,10.72
2019-04-23T23:11:13.755Z,10.72
2019-04-23T23:16:45.112Z,10.35
2019-04-23T23:19:30.183Z,10.00
2019-04-23T23:24:28.588Z,10.28
2019-04-23T23:26:57.162Z,9.35
2019-04-23T23:29:29.979Z,10.28
2019-04-23T23:34:54.191Z,8.90
2019-04-23T23:39:49.657Z,9.53
2019-04-23T23:42:13.999Z,9.78
2019-04-23T23:47:15.121Z,9.73
2019-04-23T23:49:54.529Z,9.55
2019-04-23T23:52:21.772Z,9.70
2019-04-23T23:54:56.230Z,8.60
